createdAt,value
2022-12-11T00:01:42.406Z,36.57
2022-12-11T00:04:10.480Z,37.90
2022-12-11T00:06:39.845Z,38.20
2022-12-11T00:09:08.176Z,35.87
2022-12-11T00:11:36.296Z,37.63
2022-12-11T00:14:04.672Z,37.73
2022-12-11T00:16:32.697Z,36.83
2022-12-11T00:19:00.864Z,36.00
2022-12-11T00:21:29.067Z,35.57
2022-12-11T00:23:58.653Z,36.77
2022-12-11T00:26:27.003Z,35.07
2022-12-11T00:28:57.710Z,37.60
2022-12-11T00:31:25.862Z,36.17
2022-12-11T00:33:54.164Z,37.13
2022-12-11T00:36:24.082Z,34.97
2022-12-11T00:38:52.845Z,35.43
2022-12-11T00:41:22.695Z,34.90
2022-12-11T00:43:50.939Z,34.40
2022-12-11T00:46:19.631Z,36.00
2022-12-11T00:48:52.389Z,35.27
2022-12-11T00:51:20.542Z,35.30
2022-12-11T00:53:49.337Z,34.40
2022-12-11T00:56:19.306Z,35.17
2022-12-11T00:58:49.706Z,34.40
2022-12-11T01:01:19.542Z,34.13
2022-12-11T01:03:48.721Z,35.13
2022-12-11T01:06:18.894Z,35.97
2022-12-11T01:08:48.173Z,35.80
2022-12-11T01:11:16.681Z,35.07
2022-12-11T01:13:46.280Z,34.90
2022-12-11T01:16:17.230Z,35.20
2022-12-11T01:18:47.560Z,34.67
2022-12-11T01:21:16.702Z,34.40
2022-12-11T01:23:45.069Z,34.27
2022-12-11T01:26:16.052Z,34.10
2022-12-11T01:28:45.115Z,34.77
2022-12-11T01:31:19.260Z,35.60
2022-12-11T01:33:47.403Z,35.63
2022-12-11T01:36:18.847Z,34.40
2022-12-11T01:38:47.235Z,35.00
2022-12-11T01:41:15.768Z,34.27
2022-12-11T01:44:06.436Z,34.93
2022-12-11T01:46:37.673Z,36.87
2022-12-11T01:49:09.985Z,35.47
2022-12-11T01:51:42.218Z,35.27
2022-12-11T01:54:14.656Z,34.30
2022-12-11T01:56:44.263Z,35.93
2022-12-11T01:59:14.606Z,35.70
2022-12-11T02:01:52.649Z,34.70
2022-12-11T02:04:21.987Z,35.23
2022-12-11T02:06:52.589Z,34.33
2022-12-11T02:09:23.369Z,36.03
2022-12-11T02:11:58.452Z,35.03
2022-12-11T02:14:33.882Z,35.17
2022-12-11T02:17:08.323Z,34.33
2022-12-11T02:19:50.284Z,35.07
2022-12-11T02:22:31.289Z,35.80
2022-12-11T02:25:13.974Z,35.70
2022-12-11T02:27:46.790Z,35.23
2022-12-11T02:30:21.797Z,36.80
2022-12-11T02:32:58.532Z,36.07
2022-12-11T02:35:31.808Z,35.87
2022-12-11T02:38:06.476Z,37.07
2022-12-11T02:40:38.354Z,36.43
2022-12-11T02:43:09.904Z,37.33
2022-12-11T02:45:41.746Z,36.83
2022-12-11T02:48:11.985Z,37.17
2022-12-11T02:50:45.375Z,36.33
2022-12-11T02:53:17.037Z,36.70
2022-12-11T02:55:49.514Z,36.27
2022-12-11T02:58:22.972Z,35.87
2022-12-11T03:00:52.580Z,35.80
2022-12-11T03:03:21.020Z,35.27
2022-12-11T03:05:49.461Z,35.20
2022-12-11T03:08:18.493Z,34.17
2022-12-11T03:10:47.126Z,36.80
2022-12-11T03:13:20.859Z,35.17
2022-12-11T03:16:06.734Z,35.00
2022-12-11T03:18:41.638Z,34.13
2022-12-11T03:21:15.671Z,34.27
2022-12-11T03:23:51.391Z,34.33
2022-12-11T03:26:24.310Z,35.70
2022-12-11T03:28:59.260Z,35.80
2022-12-11T03:31:36.245Z,33.93
2022-12-11T03:34:12.138Z,34.43
2022-12-11T03:36:41.368Z,36.43
2022-12-11T03:39:14.291Z,34.67
2022-12-11T03:41:52.582Z,35.10
2022-12-11T03:44:24.144Z,34.93
2022-12-11T03:46:57.039Z,36.10
2022-12-11T03:49:28.931Z,36.87
2022-12-11T03:52:02.140Z,35.40
2022-12-11T03:54:31.491Z,34.80
2022-12-11T03:57:05.226Z,34.77
2022-12-11T03:59:33.457Z,34.47
2022-12-11T04:02:10.794Z,35.00
2022-12-11T04:04:40.614Z,34.17
2022-12-11T04:07:08.787Z,35.20
2022-12-11T04:09:39.542Z,36.20
2022-12-11T04:12:13.856Z,35.63
2022-12-11T04:14:59.308Z,34.03
2022-12-11T04:17:46.582Z,34.70
2022-12-11T04:20:32.238Z,34.57
2022-12-11T04:23:17.793Z,34.77
2022-12-11T04:25:45.823Z,33.70
2022-12-11T04:28:13.832Z,33.50
2022-12-11T04:30:42.065Z,34.27
2022-12-11T04:33:11.540Z,31.57
2022-12-11T04:35:41.882Z,33.93
2022-12-11T04:38:09.967Z,32.37
2022-12-11T04:40:38.160Z,31.70
2022-12-11T04:43:06.287Z,32.50
2022-12-11T04:45:35.810Z,31.70
2022-12-11T04:48:03.822Z,32.33
2022-12-11T04:50:33.280Z,32.47
2022-12-11T04:53:01.303Z,31.03
2022-12-11T04:55:29.356Z,30.53
2022-12-11T04:57:59.783Z,31.43
2022-12-11T05:00:29.018Z,28.77
2022-12-11T05:02:57.251Z,30.27
2022-12-11T05:05:25.419Z,28.60
2022-12-11T05:07:54.910Z,29.70
2022-12-11T05:10:23.284Z,29.23
2022-12-11T05:12:51.280Z,29.17
2022-12-11T05:15:19.760Z,28.30
2022-12-11T05:17:47.868Z,26.60
2022-12-11T05:20:18.152Z,27.23
2022-12-11T05:22:46.254Z,27.43
2022-12-11T05:25:15.888Z,26.77
2022-12-11T05:27:46.035Z,26.60
2022-12-11T05:30:16.511Z,28.10
2022-12-11T05:32:44.755Z,26.13
2022-12-11T05:35:16.005Z,26.13
2022-12-11T05:37:44.639Z,26.57
2022-12-11T05:40:13.815Z,28.33
2022-12-11T05:42:43.246Z,28.30
2022-12-11T05:45:12.423Z,28.70
2022-12-11T05:47:40.587Z,28.57
2022-12-11T05:50:09.499Z,29.23
2022-12-11T05:52:37.430Z,31.40
2022-12-11T05:55:05.816Z,30.87
2022-12-11T05:57:34.162Z,32.17
2022-12-11T06:00:03.590Z,30.90
2022-12-11T06:02:31.901Z,32.03
2022-12-11T06:05:00.130Z,32.07
2022-12-11T06:07:28.298Z,30.90
2022-12-11T06:09:58.134Z,31.90
2022-12-11T06:12:26.325Z,31.27
2022-12-11T06:14:57.912Z,31.97
2022-12-11T06:17:28.825Z,31.30
2022-12-11T06:19:56.961Z,32.10
2022-12-11T06:22:24.962Z,30.37
2022-12-11T06:24:53.004Z,31.33
2022-12-11T06:27:20.979Z,32.57
2022-12-11T06:29:48.994Z,33.30
2022-12-11T06:32:16.969Z,33.00
2022-12-11T06:34:46.468Z,31.90
2022-12-11T06:37:14.483Z,33.53
2022-12-11T06:39:42.664Z,33.93
2022-12-11T06:42:10.833Z,34.73
2022-12-11T06:44:39.057Z,34.37
2022-12-11T06:47:08.120Z,34.93
2022-12-11T06:49:38.268Z,34.17
2022-12-11T06:52:16.605Z,34.53
2022-12-11T06:54:46.439Z,33.17
2022-12-11T06:57:14.565Z,33.30
2022-12-11T06:59:42.647Z,34.00
2022-12-11T07:02:15.031Z,33.93
2022-12-11T07:04:43.932Z,33.57
2022-12-11T07:07:13.888Z,33.87
2022-12-11T07:09:42.562Z,32.73
2022-12-11T07:12:10.606Z,33.27
2022-12-11T07:14:39.557Z,33.57
2022-12-11T07:17:07.761Z,31.07
2022-12-11T07:19:35.897Z,31.10
2022-12-11T07:22:05.726Z,32.27
2022-12-11T07:24:38.205Z,31.53
2022-12-11T07:27:12.067Z,33.23
2022-12-11T07:29:40.201Z,31.73
2022-12-11T07:32:08.335Z,31.03
2022-12-11T07:34:36.508Z,29.73
2022-12-11T07:37:04.773Z,30.63
2022-12-11T07:39:34.251Z,30.63
2022-12-11T07:42:04.734Z,29.50
2022-12-11T07:44:33.039Z,28.97
2022-12-11T07:47:01.184Z,30.73
2022-12-11T07:49:30.205Z,28.90
2022-12-11T07:52:01.263Z,28.67
2022-12-11T07:54:32.231Z,29.13
2022-12-11T07:57:03.849Z,28.30
2022-12-11T07:59:32.116Z,27.37
2022-12-11T08:02:00.281Z,29.40
2022-12-11T08:04:28.506Z,26.80
2022-12-11T08:06:58.665Z,26.20
2022-12-11T08:09:26.696Z,26.00
2022-12-11T08:11:54.764Z,27.47
2022-12-11T08:14:24.668Z,26.57
2022-12-11T08:16:53.134Z,27.27
2022-12-11T08:19:21.363Z,27.70
2022-12-11T08:21:49.465Z,26.20
2022-12-11T08:24:20.640Z,26.70
2022-12-11T08:26:49.651Z,25.27
2022-12-11T08:29:17.859Z,25.37
2022-12-11T08:31:47.340Z,25.77
2022-12-11T08:34:15.438Z,26.13
2022-12-11T08:36:44.305Z,24.27
2022-12-11T08:39:15.106Z,23.43
2022-12-11T08:41:43.388Z,25.27
2022-12-11T08:44:16.518Z,27.40
2022-12-11T08:46:46.763Z,25.57
2022-12-11T08:49:14.859Z,27.57
2022-12-11T08:51:42.979Z,22.83
2022-12-11T08:54:12.480Z,21.90
2022-12-11T08:56:41.051Z,23.83
2022-12-11T08:59:09.464Z,25.03
2022-12-11T09:01:37.643Z,26.03
2022-12-11T09:04:07.415Z,25.67
2022-12-11T09:06:35.441Z,28.73
2022-12-11T09:09:03.865Z,29.50
2022-12-11T09:11:34.368Z,29.23
2022-12-11T09:14:07.366Z,28.47
2022-12-11T09:16:40.023Z,29.37
2022-12-11T09:19:13.769Z,27.70
2022-12-11T09:21:42.868Z,27.50
2022-12-11T09:24:13.083Z,30.37
2022-12-11T09:26:41.845Z,31.20
2022-12-11T09:29:10.292Z,29.80
2022-12-11T09:31:38.889Z,30.27
2022-12-11T09:34:11.418Z,30.20
2022-12-11T09:36:40.692Z,30.50
2022-12-11T09:39:10.456Z,31.40
2022-12-11T09:41:40.560Z,30.50
2022-12-11T09:44:21.006Z,30.63
2022-12-11T09:46:49.975Z,30.93
2022-12-11T09:49:36.234Z,29.97
2022-12-11T09:52:12.320Z,31.07
2022-12-11T09:54:46.550Z,31.83
2022-12-11T09:57:35.856Z,30.10
2022-12-11T10:00:22.589Z,30.90
2022-12-11T10:03:09.029Z,30.50
2022-12-11T10:05:47.605Z,31.20
2022-12-11T10:08:25.265Z,30.90
2022-12-11T10:10:58.638Z,30.73
2022-12-11T10:13:37.127Z,32.07
2022-12-11T10:16:13.563Z,32.43
2022-12-11T10:18:42.145Z,31.67
2022-12-11T10:21:13.601Z,33.90
2022-12-11T10:23:47.235Z,33.23
2022-12-11T10:26:19.525Z,31.53
2022-12-11T10:28:48.246Z,31.20
2022-12-11T10:31:21.990Z,30.97
2022-12-11T10:34:00.201Z,30.80
2022-12-11T10:36:31.947Z,32.60
2022-12-11T10:39:01.069Z,30.97
2022-12-11T10:41:39.272Z,31.17
2022-12-11T10:44:17.863Z,33.13
2022-12-11T10:46:46.751Z,30.47
2022-12-11T10:49:30.217Z,30.77
2022-12-11T10:52:10.814Z,29.93
2022-12-11T10:54:41.984Z,31.07
2022-12-11T10:57:11.692Z,30.10
2022-12-11T10:59:49.607Z,29.23
2022-12-11T11:02:24.160Z,31.10
2022-12-11T11:04:57.575Z,27.83
2022-12-11T11:07:29.896Z,29.03
2022-12-11T11:10:17.577Z,27.07
2022-12-11T11:12:48.260Z,29.67
2022-12-11T11:15:21.403Z,30.10
2022-12-11T11:17:55.424Z,31.63
2022-12-11T11:20:29.191Z,29.20
2022-12-11T11:23:02.628Z,28.83
2022-12-11T11:25:35.531Z,27.73
2022-12-11T11:28:06.408Z,28.73
2022-12-11T11:30:40.844Z,30.87
2022-12-11T11:33:18.424Z,29.70
2022-12-11T11:35:54.380Z,29.73
2022-12-11T11:38:27.927Z,29.03
2022-12-11T11:41:06.627Z,29.73
2022-12-11T11:43:45.098Z,28.70
2022-12-11T11:46:20.150Z,29.47
2022-12-11T11:49:03.844Z,31.90
2022-12-11T11:51:35.645Z,30.17
2022-12-11T11:54:27.744Z,29.03
2022-12-11T11:56:57.959Z,30.57
2022-12-11T11:59:32.671Z,30.60
2022-12-11T12:02:01.532Z,31.30
2022-12-11T12:04:36.942Z,28.13
2022-12-11T12:07:20.855Z,29.90
2022-12-11T12:09:59.270Z,29.37
2022-12-11T12:12:40.087Z,26.33
2022-12-11T12:15:22.689Z,27.00
2022-12-11T12:17:56.018Z,26.70
2022-12-11T12:20:41.770Z,26.97
2022-12-11T12:23:36.301Z,28.00
2022-12-11T12:26:12.891Z,26.97
2022-12-11T12:28:52.049Z,25.60
2022-12-11T12:31:32.983Z,25.73
2022-12-11T12:34:10.871Z,24.70
2022-12-11T12:36:47.345Z,23.10
2022-12-11T12:39:29.867Z,21.13
2022-12-11T12:42:08.114Z,21.43
2022-12-11T12:44:43.908Z,22.07
2022-12-11T12:47:16.258Z,21.33
2022-12-11T12:49:47.420Z,21.67
2022-12-11T12:52:20.381Z,20.83
2022-12-11T12:55:06.150Z,21.27
2022-12-11T12:57:37.772Z,22.33
2022-12-11T13:00:13.180Z,22.27
2022-12-11T13:02:50.887Z,22.47
2022-12-11T13:05:24.419Z,23.30
2022-12-11T13:07:58.334Z,22.17
2022-12-11T13:10:31.287Z,22.27
2022-12-11T13:13:01.753Z,23.30
2022-12-11T13:15:43.720Z,21.13
2022-12-11T13:18:35.133Z,20.67
2022-12-11T13:21:04.831Z,19.90
2022-12-11T13:23:34.490Z,20.73
2022-12-11T13:26:04.820Z,22.30
2022-12-11T13:28:48.022Z,21.90
2022-12-11T13:31:33.669Z,22.13
2022-12-11T13:34:15.214Z,20.60
2022-12-11T13:36:49.149Z,22.30
2022-12-11T13:39:19.711Z,22.70
2022-12-11T13:41:51.621Z,21.83
2022-12-11T13:44:25.603Z,21.00
2022-12-11T13:46:56.850Z,21.87
2022-12-11T13:49:28.461Z,21.33
2022-12-11T13:51:58.826Z,22.87
2022-12-11T13:54:28.227Z,23.87
2022-12-11T13:56:59.818Z,25.77
2022-12-11T13:59:35.367Z,27.00
2022-12-11T14:02:16.349Z,27.23
2022-12-11T14:04:44.969Z,27.67
2022-12-11T14:07:13.519Z,27.93
2022-12-11T14:09:45.287Z,29.13
2022-12-11T14:12:19.190Z,30.43
2022-12-11T14:14:52.607Z,28.97
2022-12-11T14:17:26.730Z,29.30
2022-12-11T14:19:57.639Z,28.87
2022-12-11T14:22:27.836Z,29.40
2022-12-11T14:24:57.867Z,29.90
2022-12-11T14:27:28.758Z,30.53
2022-12-11T14:30:04.193Z,31.97
2022-12-11T14:32:38.252Z,30.00
2022-12-11T14:35:08.720Z,29.13
2022-12-11T14:37:39.694Z,26.27
2022-12-11T14:40:17.122Z,25.00
2022-12-11T14:42:48.654Z,25.30
2022-12-11T14:45:22.114Z,26.07
2022-12-11T14:47:51.918Z,26.80
2022-12-11T14:50:23.844Z,27.90
2022-12-11T14:52:54.985Z,25.13
2022-12-11T14:55:25.758Z,26.53
2022-12-11T14:57:59.290Z,22.43
2022-12-11T15:00:32.394Z,23.07
2022-12-11T15:03:02.398Z,21.70
2022-12-11T15:05:35.761Z,23.73
2022-12-11T15:08:24.825Z,25.37
2022-12-11T15:11:07.640Z,23.97
2022-12-11T15:13:38.702Z,26.23
2022-12-11T15:16:10.693Z,27.40
2022-12-11T15:18:42.561Z,27.70
2022-12-11T15:21:13.183Z,29.37
2022-12-11T15:23:51.968Z,30.23
2022-12-11T15:26:20.783Z,31.50
2022-12-11T15:28:49.191Z,30.80
2022-12-11T15:31:30.325Z,30.83
2022-12-11T15:33:59.223Z,31.40
2022-12-11T15:36:31.887Z,31.57
2022-12-11T15:39:00.219Z,32.37
2022-12-11T15:41:33.316Z,30.47
2022-12-11T15:44:03.477Z,31.80
2022-12-11T15:46:37.408Z,30.17
2022-12-11T15:49:13.699Z,30.87
2022-12-11T15:51:43.255Z,31.60
2022-12-11T15:54:11.772Z,27.27
2022-12-11T15:56:40.217Z,25.07
2022-12-11T15:59:08.437Z,25.37
2022-12-11T16:01:37.892Z,25.70
2022-12-11T16:04:06.286Z,26.07
2022-12-11T16:06:35.037Z,23.23
2022-12-11T16:09:05.145Z,25.07
2022-12-11T16:11:47.317Z,24.43
2022-12-11T16:14:15.336Z,23.67
2022-12-11T16:16:44.753Z,24.40
2022-12-11T16:19:12.783Z,24.87
2022-12-11T16:21:40.937Z,26.50
2022-12-11T16:24:09.193Z,23.73
2022-12-11T16:26:37.273Z,23.53
2022-12-11T16:29:05.324Z,23.63
2022-12-11T16:31:36.285Z,23.37
2022-12-11T16:34:05.983Z,22.57
2022-12-11T16:36:34.079Z,22.83
2022-12-11T16:39:02.191Z,23.77
2022-12-11T16:41:30.262Z,22.93
2022-12-11T16:44:03.675Z,23.37
2022-12-11T16:46:31.856Z,24.43
2022-12-11T16:48:59.854Z,23.80
2022-12-11T16:51:29.679Z,23.40
2022-12-11T16:53:58.241Z,24.20
2022-12-11T16:56:27.128Z,23.03
2022-12-11T16:58:57.830Z,23.87
2022-12-11T17:01:26.036Z,24.73
2022-12-11T17:03:54.260Z,24.13
2022-12-11T17:06:22.540Z,22.03
2022-12-11T17:08:52.613Z,23.87
2022-12-11T17:11:22.727Z,22.47
2022-12-11T17:13:57.907Z,21.80
2022-12-11T17:16:30.379Z,24.83
2022-12-11T17:18:59.071Z,25.03
2022-12-11T17:21:27.122Z,25.00
2022-12-11T17:23:56.789Z,26.10
2022-12-11T17:26:28.741Z,25.13
2022-12-11T17:28:58.566Z,26.43
2022-12-11T17:31:26.837Z,24.53
2022-12-11T17:33:58.409Z,25.30
2022-12-11T17:36:26.436Z,25.43
2022-12-11T17:38:56.992Z,22.57
2022-12-11T17:41:25.431Z,24.13
2022-12-11T17:43:58.055Z,23.57
2022-12-11T17:46:26.422Z,20.93
2022-12-11T17:48:54.507Z,20.53
2022-12-11T17:51:24.571Z,21.93
2022-12-11T17:53:53.029Z,20.50
2022-12-11T17:56:22.721Z,22.97
2022-12-11T17:58:51.055Z,22.43
2022-12-11T18:01:19.394Z,24.60
2022-12-11T18:03:47.964Z,23.97
2022-12-11T18:06:17.639Z,27.03
2022-12-11T18:08:46.218Z,27.93
2022-12-11T18:11:16.884Z,28.23
2022-12-11T18:13:47.274Z,27.87
2022-12-11T18:16:18.121Z,25.43
2022-12-11T18:18:47.431Z,27.83
2022-12-11T18:21:17.613Z,27.67
2022-12-11T18:23:46.746Z,29.90
2022-12-11T18:26:15.697Z,31.27
2022-12-11T18:28:44.032Z,29.23
2022-12-11T18:31:13.954Z,30.03
2022-12-11T18:33:44.021Z,31.37
2022-12-11T18:36:14.601Z,30.60
2022-12-11T18:38:43.387Z,30.40
2022-12-11T18:41:13.190Z,31.83
2022-12-11T18:43:42.635Z,32.50
2022-12-11T18:46:14.412Z,33.80
2022-12-11T18:48:45.783Z,32.07
2022-12-11T18:51:17.260Z,31.13
2022-12-11T18:53:46.014Z,31.10
2022-12-11T18:56:24.001Z,30.73
2022-12-11T18:58:54.162Z,30.07
2022-12-11T19:01:30.626Z,29.87
2022-12-11T19:04:06.504Z,31.60
2022-12-11T19:06:40.114Z,31.27
2022-12-11T19:09:10.417Z,30.77
2022-12-11T19:11:41.957Z,29.00
2022-12-11T19:14:10.956Z,30.50
2022-12-11T19:16:41.538Z,29.70
2022-12-11T19:19:14.788Z,30.20
2022-12-11T19:21:46.723Z,30.13
2022-12-11T19:24:21.544Z,30.43
2022-12-11T19:26:50.773Z,30.57
2022-12-11T19:29:22.029Z,30.97
2022-12-11T19:31:50.124Z,31.23
2022-12-11T19:34:21.576Z,33.03
2022-12-11T19:36:50.127Z,30.37
2022-12-11T19:39:19.676Z,31.10
2022-12-11T19:41:48.072Z,29.77
2022-12-11T19:44:16.097Z,32.37
2022-12-11T19:46:44.203Z,30.97
2022-12-11T19:49:13.205Z,31.87
2022-12-11T19:51:44.256Z,31.13
2022-12-11T19:54:15.246Z,31.97
2022-12-11T19:56:43.966Z,30.70
2022-12-11T19:59:15.781Z,32.17
2022-12-11T20:01:48.872Z,33.70
2022-12-11T20:04:20.187Z,33.73
2022-12-11T20:06:50.066Z,33.07
2022-12-11T20:09:18.975Z,33.10
2022-12-11T20:11:48.617Z,34.17
2022-12-11T20:14:21.167Z,33.73
2022-12-11T20:19:37.831Z,32.47
2022-12-11T20:22:10.209Z,33.00
2022-12-11T20:24:38.333Z,34.47
2022-12-11T20:27:06.828Z,35.50
2022-12-11T20:29:34.902Z,33.70
2022-12-11T20:32:09.288Z,34.87
2022-12-11T20:34:37.407Z,37.03
2022-12-11T20:37:07.828Z,35.33
2022-12-11T20:39:36.091Z,35.90
2022-12-11T20:42:05.159Z,36.10
2022-12-11T20:44:33.353Z,36.90
2022-12-11T20:47:01.375Z,36.67
2022-12-11T20:49:29.444Z,35.47
2022-12-11T20:51:59.771Z,36.27
2022-12-11T20:54:29.897Z,36.07
2022-12-11T20:57:00.711Z,36.57
2022-12-11T20:59:33.573Z,37.23
2022-12-11T21:02:01.754Z,36.60
2022-12-11T21:04:29.920Z,37.77
2022-12-11T21:06:58.281Z,37.90
2022-12-11T21:09:31.064Z,36.00
2022-12-11T21:12:00.903Z,36.20
2022-12-11T21:14:30.232Z,36.03
2022-12-11T21:16:58.573Z,35.67
2022-12-11T21:19:27.244Z,37.10
2022-12-11T21:21:56.655Z,37.57
2022-12-11T21:24:27.989Z,37.00
2022-12-11T21:26:59.148Z,37.50
2022-12-11T21:29:29.347Z,38.30
2022-12-11T21:31:58.342Z,37.47
2022-12-11T21:34:26.597Z,38.70
2022-12-11T21:36:56.912Z,37.10
2022-12-11T21:39:26.267Z,40.67
2022-12-11T21:41:54.394Z,39.33
2022-12-11T21:47:12.107Z,39.33
2022-12-11T21:49:40.298Z,40.90
2022-12-11T21:52:09.552Z,40.77
2022-12-11T21:54:37.872Z,41.17
2022-12-11T21:57:08.163Z,39.63
2022-12-11T21:59:40.719Z,40.07
2022-12-11T22:02:11.228Z,40.77
2022-12-11T22:04:39.455Z,41.13
2022-12-11T22:07:07.569Z,42.27
2022-12-11T22:09:35.489Z,42.13
2022-12-11T22:12:03.466Z,41.07
2022-12-11T22:14:34.674Z,41.20
2022-12-11T22:17:04.094Z,42.07
2022-12-11T22:19:32.849Z,39.80
2022-12-11T22:22:01.169Z,40.70
2022-12-11T22:24:29.523Z,39.83
2022-12-11T22:27:00.705Z,40.50
2022-12-11T22:29:28.740Z,40.27
2022-12-11T22:31:56.849Z,40.50
2022-12-11T22:34:26.535Z,40.17
2022-12-11T22:36:54.725Z,41.13
2022-12-11T22:39:22.705Z,40.50
2022-12-11T22:41:50.820Z,41.17
2022-12-11T22:44:21.171Z,41.70
2022-12-11T22:46:50.741Z,42.23
2022-12-11T22:49:19.828Z,42.43
2022-12-11T22:51:50.111Z,42.70
2022-12-11T22:54:18.506Z,43.50
2022-12-11T22:56:46.579Z,42.93
2022-12-11T22:59:14.957Z,43.20
2022-12-11T23:01:43.466Z,41.97
2022-12-11T23:04:11.511Z,43.13
2022-12-11T23:06:40.522Z,40.30
2022-12-11T23:09:11.810Z,41.27
2022-12-11T23:11:40.152Z,39.43
2022-12-11T23:14:09.919Z,41.07
2022-12-11T23:16:38.281Z,42.47
2022-12-11T23:19:06.624Z,43.17
2022-12-11T23:21:34.904Z,41.87
2022-12-11T23:24:03.044Z,42.17
2022-12-11T23:26:32.964Z,41.43
2022-12-11T23:29:01.292Z,40.03
2022-12-11T23:31:30.120Z,40.93
2022-12-11T23:33:58.930Z,40.80
2022-12-11T23:36:28.951Z,41.37
2022-12-11T23:38:57.445Z,39.27
2022-12-11T23:41:26.523Z,41.93
2022-12-11T23:43:55.929Z,41.33
2022-12-11T23:46:25.630Z,41.77
2022-12-11T23:48:54.681Z,42.60
2022-12-11T23:51:24.204Z,43.37
2022-12-11T23:53:52.920Z,43.40
2022-12-11T23:56:25.122Z,43.10
2022-12-11T23:58:53.937Z,40.83
